sensor_id;sensor_type;location;lat;lon;timestamp;temperature;humidity
19878;DHT22;10101;52.204;9.910;2022-10-16T00:00:45;12.50;99.90
19878;DHT22;10101;52.204;9.910;2022-10-16T00:03:12;12.40;99.90
19878;DHT22;10101;52.204;9.910;2022-10-16T00:05:40;12.30;99.90
19878;DHT22;10101;52.204;9.910;2022-10-16T00:08:09;12.30;99.90
19878;DHT22;10101;52.204;9.910;2022-10-16T00:10:36;12.30;99.90
19878;DHT22;10101;52.204;9.910;2022-10-16T00:13:04;12.20;99.90
19878;DHT22;10101;52.204;9.910;2022-10-16T00:15:33;12.20;99.90
19878;DHT22;10101;52.204;9.910;2022-10-16T00:18:02;12.10;99.90
19878;DHT22;10101;52.204;9.910;2022-10-16T00:20:29;12.10;99.90
19878;DHT22;10101;52.204;9.910;2022-10-16T00:22:56;12.00;99.90
19878;DHT22;10101;52.204;9.910;2022-10-16T00:25:23;12.00;99.90
19878;DHT22;10101;52.204;9.910;2022-10-16T00:27:50;11.90;99.90
19878;DHT22;10101;52.204;9.910;2022-10-16T00:30:18;11.90;99.90
19878;DHT22;10101;52.204;9.910;2022-10-16T00:32:45;11.90;99.90
19878;DHT22;10101;52.204;9.910;2022-10-16T00:35:12;11.90;99.90
19878;DHT22;10101;52.204;9.910;2022-10-16T00:37:38;11.90;99.90
19878;DHT22;10101;52.204;9.910;2022-10-16T00:40:06;11.90;99.90
19878;DHT22;10101;52.204;9.910;2022-10-16T00:42:33;12.00;99.90
19878;DHT22;10101;52.204;9.910;2022-10-16T00:44:59;12.00;99.90
19878;DHT22;10101;52.204;9.910;2022-10-16T00:47:30;12.00;99.90
19878;DHT22;10101;52.204;9.910;2022-10-16T00:50:01;12.00;99.90
19878;DHT22;10101;52.204;9.910;2022-10-16T00:52:28;12.00;99.90
19878;DHT22;10101;52.204;9.910;2022-10-16T00:54:56;12.10;99.90
19878;DHT22;10101;52.204;9.910;2022-10-16T00:57:24;12.10;99.90
19878;DHT22;10101;52.204;9.910;2022-10-16T00:59:51;12.10;99.90
19878;DHT22;10101;52.204;9.910;2022-10-16T01:02:18;12.30;99.90
19878;DHT22;10101;52.204;9.910;2022-10-16T01:04:48;12.30;99.90
19878;DHT22;10101;52.204;9.910;2022-10-16T01:07:29;12.50;99.90
19878;DHT22;10101;52.204;9.910;2022-10-16T01:10:07;12.60;99.90
19878;DHT22;10101;52.204;9.910;2022-10-16T01:12:41;12.60;99.90
19878;DHT22;10101;52.204;9.910;2022-10-16T01:15:11;12.60;99.90
19878;DHT22;10101;52.204;9.910;2022-10-16T01:17:45;12.60;99.90
19878;DHT22;10101;52.204;9.910;2022-10-16T01:20:22;12.60;99.90
19878;DHT22;10101;52.204;9.910;2022-10-16T01:23:07;12.60;99.90
19878;DHT22;10101;52.204;9.910;2022-10-16T01:25:55;12.70;99.90
19878;DHT22;10101;52.204;9.910;2022-10-16T01:28:29;12.70;99.90
19878;DHT22;10101;52.204;9.910;2022-10-16T01:31:00;12.70;99.90
19878;DHT22;10101;52.204;9.910;2022-10-16T01:33:32;12.80;99.90
19878;DHT22;10101;52.204;9.910;2022-10-16T01:36:04;12.80;99.90
19878;DHT22;10101;52.204;9.910;2022-10-16T01:38:35;12.80;99.90
19878;DHT22;10101;52.204;9.910;2022-10-16T01:41:08;12.70;99.90
19878;DHT22;10101;52.204;9.910;2022-10-16T01:43:40;12.80;99.90
19878;DHT22;10101;52.204;9.910;2022-10-16T01:46:08;12.70;99.90
19878;DHT22;10101;52.204;9.910;2022-10-16T01:48:36;12.70;99.90
19878;DHT22;10101;52.204;9.910;2022-10-16T01:51:07;12.70;99.90
19878;DHT22;10101;52.204;9.910;2022-10-16T01:53:35;12.70;99.90
19878;DHT22;10101;52.204;9.910;2022-10-16T01:56:04;12.60;99.90
19878;DHT22;10101;52.204;9.910;2022-10-16T01:58:37;12.60;99.90
19878;DHT22;10101;52.204;9.910;2022-10-16T02:01:07;12.60;99.90
19878;DHT22;10101;52.204;9.910;2022-10-16T02:03:37;12.50;99.90
19878;DHT22;10101;52.204;9.910;2022-10-16T02:06:04;12.50;99.90
19878;DHT22;10101;52.204;9.910;2022-10-16T02:08:31;12.40;99.90
19878;DHT22;10101;52.204;9.910;2022-10-16T02:10:58;12.30;99.90
19878;DHT22;10101;52.204;9.910;2022-10-16T02:13:30;12.30;99.90
19878;DHT22;10101;52.204;9.910;2022-10-16T02:15:57;12.30;99.90
19878;DHT22;10101;52.204;9.910;2022-10-16T02:18:26;12.30;99.90
19878;DHT22;10101;52.204;9.910;2022-10-16T02:20:59;12.30;99.90
19878;DHT22;10101;52.204;9.910;2022-10-16T02:23:32;12.20;99.90
19878;DHT22;10101;52.204;9.910;2022-10-16T02:26:01;12.20;99.90
19878;DHT22;10101;52.204;9.910;2022-10-16T02:28:35;12.20;99.90
19878;DHT22;10101;52.204;9.910;2022-10-16T02:31:07;12.10;99.90
19878;DHT22;10101;52.204;9.910;2022-10-16T02:33:37;12.00;99.90
19878;DHT22;10101;52.204;9.910;2022-10-16T02:36:05;12.00;99.90
19878;DHT22;10101;52.204;9.910;2022-10-16T02:38:33;12.00;99.90
19878;DHT22;10101;52.204;9.910;2022-10-16T02:41:00;11.90;99.90
19878;DHT22;10101;52.204;9.910;2022-10-16T02:43:27;11.90;99.90
19878;DHT22;10101;52.204;9.910;2022-10-16T02:45:54;11.90;99.90
19878;DHT22;10101;52.204;9.910;2022-10-16T02:48:21;11.80;99.90
19878;DHT22;10101;52.204;9.910;2022-10-16T02:50:49;11.90;99.90
19878;DHT22;10101;52.204;9.910;2022-10-16T02:53:16;11.80;99.90
19878;DHT22;10101;52.204;9.910;2022-10-16T02:55:43;11.80;99.90
19878;DHT22;10101;52.204;9.910;2022-10-16T02:58:09;11.80;99.90
19878;DHT22;10101;52.204;9.910;2022-10-16T03:00:36;11.80;99.90
19878;DHT22;10101;52.204;9.910;2022-10-16T03:03:03;11.80;99.90
19878;DHT22;10101;52.204;9.910;2022-10-16T03:05:30;11.80;99.90
19878;DHT22;10101;52.204;9.910;2022-10-16T03:07:58;11.70;99.90
19878;DHT22;10101;52.204;9.910;2022-10-16T03:10:25;11.70;99.90
19878;DHT22;10101;52.204;9.910;2022-10-16T03:12:52;11.70;99.90
19878;DHT22;10101;52.204;9.910;2022-10-16T03:15:19;11.80;99.90
19878;DHT22;10101;52.204;9.910;2022-10-16T03:17:46;11.70;99.90
19878;DHT22;10101;52.204;9.910;2022-10-16T03:20:12;11.70;99.90
19878;DHT22;10101;52.204;9.910;2022-10-16T03:22:39;11.80;99.90
19878;DHT22;10101;52.204;9.910;2022-10-16T03:25:08;11.70;99.90
19878;DHT22;10101;52.204;9.910;2022-10-16T03:27:35;11.70;99.90
19878;DHT22;10101;52.204;9.910;2022-10-16T03:30:02;11.70;99.90
19878;DHT22;10101;52.204;9.910;2022-10-16T03:32:29;11.70;99.90
19878;DHT22;10101;52.204;9.910;2022-10-16T03:34:55;11.60;99.90
19878;DHT22;10101;52.204;9.910;2022-10-16T03:37:22;11.60;99.90
19878;DHT22;10101;52.204;9.910;2022-10-16T03:39:49;11.60;99.90
19878;DHT22;10101;52.204;9.910;2022-10-16T03:42:17;11.60;99.90
19878;DHT22;10101;52.204;9.910;2022-10-16T03:44:44;11.50;99.90
19878;DHT22;10101;52.204;9.910;2022-10-16T03:47:10;11.60;99.90
19878;DHT22;10101;52.204;9.910;2022-10-16T03:49:37;11.60;99.90
19878;DHT22;10101;52.204;9.910;2022-10-16T03:52:04;11.60;99.90
19878;DHT22;10101;52.204;9.910;2022-10-16T03:54:31;11.70;99.90
19878;DHT22;10101;52.204;9.910;2022-10-16T03:56:57;11.60;99.90
19878;DHT22;10101;52.204;9.910;2022-10-16T03:59:25;11.60;99.90
19878;DHT22;10101;52.204;9.910;2022-10-16T04:01:52;11.60;99.90
19878;DHT22;10101;52.204;9.910;2022-10-16T04:04:19;11.60;99.90
19878;DHT22;10101;52.204;9.910;2022-10-16T04:06:45;11.60;99.90
19878;DHT22;10101;52.204;9.910;2022-10-16T04:09:12;11.40;99.90
19878;DHT22;10101;52.204;9.910;2022-10-16T04:11:39;11.60;99.90
19878;DHT22;10101;52.204;9.910;2022-10-16T04:14:06;11.60;99.90
19878;DHT22;10101;52.204;9.910;2022-10-16T04:16:34;11.60;99.90
19878;DHT22;10101;52.204;9.910;2022-10-16T04:19:01;11.30;99.90
19878;DHT22;10101;52.204;9.910;2022-10-16T04:21:27;11.70;99.90
19878;DHT22;10101;52.204;9.910;2022-10-16T04:23:54;11.80;99.90
19878;DHT22;10101;52.204;9.910;2022-10-16T04:26:21;11.70;99.90
19878;DHT22;10101;52.204;9.910;2022-10-16T04:28:47;11.70;99.90
19878;DHT22;10101;52.204;9.910;2022-10-16T04:31:14;11.70;99.90
19878;DHT22;10101;52.204;9.910;2022-10-16T04:33:43;11.70;99.90
19878;DHT22;10101;52.204;9.910;2022-10-16T04:36:10;11.60;99.90
19878;DHT22;10101;52.204;9.910;2022-10-16T04:38:37;11.60;99.90
19878;DHT22;10101;52.204;9.910;2022-10-16T04:41:05;11.60;99.90
19878;DHT22;10101;52.204;9.910;2022-10-16T04:43:32;11.60;99.90
19878;DHT22;10101;52.204;9.910;2022-10-16T04:45:59;11.60;99.90
19878;DHT22;10101;52.204;9.910;2022-10-16T04:48:26;11.70;99.90
19878;DHT22;10101;52.204;9.910;2022-10-16T04:50:54;11.70;99.90
19878;DHT22;10101;52.204;9.910;2022-10-16T04:53:21;11.70;99.90
19878;DHT22;10101;52.204;9.910;2022-10-16T04:55:49;11.80;99.90
19878;DHT22;10101;52.204;9.910;2022-10-16T04:58:16;11.70;99.90
19878;DHT22;10101;52.204;9.910;2022-10-16T05:00:44;11.80;99.90
19878;DHT22;10101;52.204;9.910;2022-10-16T05:03:11;11.90;99.90
19878;DHT22;10101;52.204;9.910;2022-10-16T05:05:42;11.90;99.90
19878;DHT22;10101;52.204;9.910;2022-10-16T05:08:11;11.90;99.90
19878;DHT22;10101;52.204;9.910;2022-10-16T05:10:38;12.00;99.90
19878;DHT22;10101;52.204;9.910;2022-10-16T05:13:05;11.90;99.90
19878;DHT22;10101;52.204;9.910;2022-10-16T05:15:32;11.90;99.90
19878;DHT22;10101;52.204;9.910;2022-10-16T05:17:59;11.90;99.90
19878;DHT22;10101;52.204;9.910;2022-10-16T05:20:26;12.00;99.90
19878;DHT22;10101;52.204;9.910;2022-10-16T05:22:52;12.00;99.90
19878;DHT22;10101;52.204;9.910;2022-10-16T05:25:20;12.00;99.90
19878;DHT22;10101;52.204;9.910;2022-10-16T05:27:47;12.00;99.90
19878;DHT22;10101;52.204;9.910;2022-10-16T05:30:15;12.00;99.90
19878;DHT22;10101;52.204;9.910;2022-10-16T05:32:42;12.00;99.90
19878;DHT22;10101;52.204;9.910;2022-10-16T05:35:12;12.00;99.90
19878;DHT22;10101;52.204;9.910;2022-10-16T05:37:39;11.90;99.90
19878;DHT22;10101;52.204;9.910;2022-10-16T05:40:07;11.80;99.90
19878;DHT22;10101;52.204;9.910;2022-10-16T05:42:35;11.70;99.90
19878;DHT22;10101;52.204;9.910;2022-10-16T05:45:03;11.70;99.90
19878;DHT22;10101;52.204;9.910;2022-10-16T05:47:30;11.60;99.90
19878;DHT22;10101;52.204;9.910;2022-10-16T05:49:57;11.60;99.90
19878;DHT22;10101;52.204;9.910;2022-10-16T05:52:23;11.50;99.90
19878;DHT22;10101;52.204;9.910;2022-10-16T05:54:50;11.40;99.90
19878;DHT22;10101;52.204;9.910;2022-10-16T05:57:17;11.40;99.90
19878;DHT22;10101;52.204;9.910;2022-10-16T05:59:45;11.40;99.90
19878;DHT22;10101;52.204;9.910;2022-10-16T06:02:13;11.40;99.90
19878;DHT22;10101;52.204;9.910;2022-10-16T06:04:40;11.30;99.90
19878;DHT22;10101;52.204;9.910;2022-10-16T06:07:06;11.30;99.90
19878;DHT22;10101;52.204;9.910;2022-10-16T06:09:33;11.30;99.90
19878;DHT22;10101;52.204;9.910;2022-10-16T06:12:00;11.20;99.90
19878;DHT22;10101;52.204;9.910;2022-10-16T06:14:27;11.30;99.90
19878;DHT22;10101;52.204;9.910;2022-10-16T06:16:55;11.30;99.90
19878;DHT22;10101;52.204;9.910;2022-10-16T06:19:22;11.30;99.90
19878;DHT22;10101;52.204;9.910;2022-10-16T06:21:49;11.30;99.90
19878;DHT22;10101;52.204;9.910;2022-10-16T06:24:15;11.40;99.90
19878;DHT22;10101;52.204;9.910;2022-10-16T06:26:42;11.40;99.90
19878;DHT22;10101;52.204;9.910;2022-10-16T06:29:09;11.40;99.90
19878;DHT22;10101;52.204;9.910;2022-10-16T06:31:36;11.40;99.90
19878;DHT22;10101;52.204;9.910;2022-10-16T06:34:04;11.50;99.90
19878;DHT22;10101;52.204;9.910;2022-10-16T06:36:34;11.50;99.90
19878;DHT22;10101;52.204;9.910;2022-10-16T06:39:01;11.60;99.90
19878;DHT22;10101;52.204;9.910;2022-10-16T06:41:28;11.70;99.90
19878;DHT22;10101;52.204;9.910;2022-10-16T06:43:55;11.90;99.90
19878;DHT22;10101;52.204;9.910;2022-10-16T06:46:23;12.00;99.90
19878;DHT22;10101;52.204;9.910;2022-10-16T06:48:50;12.10;99.90
19878;DHT22;10101;52.204;9.910;2022-10-16T06:51:20;12.30;99.90
19878;DHT22;10101;52.204;9.910;2022-10-16T06:53:48;12.40;99.90
19878;DHT22;10101;52.204;9.910;2022-10-16T06:56:16;12.60;99.90
19878;DHT22;10101;52.204;9.910;2022-10-16T06:58:43;12.90;99.90
19878;DHT22;10101;52.204;9.910;2022-10-16T07:01:11;13.10;99.90
19878;DHT22;10101;52.204;9.910;2022-10-16T07:03:38;13.30;99.90
19878;DHT22;10101;52.204;9.910;2022-10-16T07:06:07;13.40;99.90
19878;DHT22;10101;52.204;9.910;2022-10-16T07:08:37;13.80;99.90
19878;DHT22;10101;52.204;9.910;2022-10-16T07:11:06;13.80;99.90
19878;DHT22;10101;52.204;9.910;2022-10-16T07:13:34;13.90;99.90
19878;DHT22;10101;52.204;9.910;2022-10-16T07:16:04;14.00;99.90
19878;DHT22;10101;52.204;9.910;2022-10-16T07:18:31;14.10;99.90
19878;DHT22;10101;52.204;9.910;2022-10-16T07:21:03;14.20;99.90
19878;DHT22;10101;52.204;9.910;2022-10-16T07:23:30;14.30;99.90
19878;DHT22;10101;52.204;9.910;2022-10-16T07:25:58;14.40;99.90
19878;DHT22;10101;52.204;9.910;2022-10-16T07:28:26;14.50;99.90
19878;DHT22;10101;52.204;9.910;2022-10-16T07:30:53;14.50;99.90
19878;DHT22;10101;52.204;9.910;2022-10-16T07:33:19;14.60;99.90
19878;DHT22;10101;52.204;9.910;2022-10-16T07:35:50;14.70;99.90
19878;DHT22;10101;52.204;9.910;2022-10-16T07:38:17;14.80;99.90
19878;DHT22;10101;52.204;9.910;2022-10-16T07:40:44;14.80;99.90
19878;DHT22;10101;52.204;9.910;2022-10-16T07:43:13;14.90;99.90
19878;DHT22;10101;52.204;9.910;2022-10-16T07:45:47;15.00;99.90
19878;DHT22;10101;52.204;9.910;2022-10-16T07:48:15;15.00;99.90
19878;DHT22;10101;52.204;9.910;2022-10-16T07:50:42;15.30;99.90
19878;DHT22;10101;52.204;9.910;2022-10-16T07:53:09;15.40;99.90
19878;DHT22;10101;52.204;9.910;2022-10-16T07:55:36;15.40;99.90
19878;DHT22;10101;52.204;9.910;2022-10-16T07:58:02;15.60;99.90
19878;DHT22;10101;52.204;9.910;2022-10-16T08:00:31;15.60;99.90
19878;DHT22;10101;52.204;9.910;2022-10-16T08:02:58;15.60;99.90
19878;DHT22;10101;52.204;9.910;2022-10-16T08:05:26;15.70;99.90
19878;DHT22;10101;52.204;9.910;2022-10-16T08:07:53;15.60;99.90
19878;DHT22;10101;52.204;9.910;2022-10-16T08:10:21;15.60;99.90
19878;DHT22;10101;52.204;9.910;2022-10-16T08:12:48;15.70;99.90
19878;DHT22;10101;52.204;9.910;2022-10-16T08:15:16;15.70;99.90
19878;DHT22;10101;52.204;9.910;2022-10-16T08:17:44;15.70;99.90
19878;DHT22;10101;52.204;9.910;2022-10-16T08:20:11;15.70;99.90
19878;DHT22;10101;52.204;9.910;2022-10-16T08:22:38;15.70;99.90
19878;DHT22;10101;52.204;9.910;2022-10-16T08:25:05;15.70;99.90
19878;DHT22;10101;52.204;9.910;2022-10-16T08:27:32;15.90;99.90
19878;DHT22;10101;52.204;9.910;2022-10-16T08:29:59;15.90;99.90
19878;DHT22;10101;52.204;9.910;2022-10-16T08:32:26;15.90;99.90
19878;DHT22;10101;52.204;9.910;2022-10-16T08:34:54;15.90;99.90
19878;DHT22;10101;52.204;9.910;2022-10-16T08:37:21;15.80;99.90
19878;DHT22;10101;52.204;9.910;2022-10-16T08:39:47;16.00;99.90
19878;DHT22;10101;52.204;9.910;2022-10-16T08:42:23;16.10;99.90
19878;DHT22;10101;52.204;9.910;2022-10-16T08:45:12;16.20;99.90
19878;DHT22;10101;52.204;9.910;2022-10-16T08:47:49;16.30;99.90
19878;DHT22;10101;52.204;9.910;2022-10-16T08:50:24;16.40;99.90
19878;DHT22;10101;52.204;9.910;2022-10-16T08:52:53;16.40;99.90
19878;DHT22;10101;52.204;9.910;2022-10-16T08:55:30;16.50;99.90
19878;DHT22;10101;52.204;9.910;2022-10-16T08:57:57;16.40;99.90
19878;DHT22;10101;52.204;9.910;2022-10-16T09:00:25;16.50;99.90
19878;DHT22;10101;52.204;9.910;2022-10-16T09:02:58;16.40;99.90
19878;DHT22;10101;52.204;9.910;2022-10-16T09:05:42;16.50;99.90
19878;DHT22;10101;52.204;9.910;2022-10-16T09:08:19;16.40;99.90
19878;DHT22;10101;52.204;9.910;2022-10-16T09:10:55;16.30;99.90
19878;DHT22;10101;52.204;9.910;2022-10-16T09:13:27;16.30;99.90
19878;DHT22;10101;52.204;9.910;2022-10-16T09:16:01;16.40;99.90
19878;DHT22;10101;52.204;9.910;2022-10-16T09:18:34;16.60;99.90
19878;DHT22;10101;52.204;9.910;2022-10-16T09:21:10;16.70;99.90
19878;DHT22;10101;52.204;9.910;2022-10-16T09:23:40;16.50;99.90
19878;DHT22;10101;52.204;9.910;2022-10-16T09:26:11;16.50;99.90
19878;DHT22;10101;52.204;9.910;2022-10-16T09:28:38;16.40;99.90
19878;DHT22;10101;52.204;9.910;2022-10-16T09:31:05;16.60;99.90
19878;DHT22;10101;52.204;9.910;2022-10-16T09:33:36;16.70;99.90
19878;DHT22;10101;52.204;9.910;2022-10-16T09:36:08;16.90;99.90
19878;DHT22;10101;52.204;9.910;2022-10-16T09:38:36;17.00;99.90
19878;DHT22;10101;52.204;9.910;2022-10-16T09:41:15;16.90;99.90
19878;DHT22;10101;52.204;9.910;2022-10-16T09:43:47;17.00;99.90
19878;DHT22;10101;52.204;9.910;2022-10-16T09:46:23;17.00;99.90
19878;DHT22;10101;52.204;9.910;2022-10-16T09:48:53;17.20;99.90
19878;DHT22;10101;52.204;9.910;2022-10-16T09:51:24;17.10;99.90
19878;DHT22;10101;52.204;9.910;2022-10-16T09:53:55;17.20;99.90
19878;DHT22;10101;52.204;9.910;2022-10-16T09:56:23;17.20;99.90
19878;DHT22;10101;52.204;9.910;2022-10-16T09:58:51;17.40;99.90
19878;DHT22;10101;52.204;9.910;2022-10-16T10:01:19;17.60;99.90
19878;DHT22;10101;52.204;9.910;2022-10-16T10:03:46;17.50;99.90
19878;DHT22;10101;52.204;9.910;2022-10-16T10:06:18;17.50;99.90
19878;DHT22;10101;52.204;9.910;2022-10-16T10:08:58;17.50;99.90
19878;DHT22;10101;52.204;9.910;2022-10-16T10:11:39;17.60;99.90
19878;DHT22;10101;52.204;9.910;2022-10-16T10:14:13;17.70;99.90
19878;DHT22;10101;52.204;9.910;2022-10-16T10:16:42;17.70;1.00
19878;DHT22;10101;52.204;9.910;2022-10-16T10:19:14;17.90;1.00
19878;DHT22;10101;52.204;9.910;2022-10-16T10:21:41;17.90;57.80
19878;DHT22;10101;52.204;9.910;2022-10-16T10:24:12;17.90;99.90
19878;DHT22;10101;52.204;9.910;2022-10-16T10:26:44;18.00;1.00
19878;DHT22;10101;52.204;9.910;2022-10-16T10:29:18;18.10;1.00
19878;DHT22;10101;52.204;9.910;2022-10-16T10:31:53;18.10;99.90
19878;DHT22;10101;52.204;9.910;2022-10-16T10:34:35;18.00;1.00
19878;DHT22;10101;52.204;9.910;2022-10-16T10:37:13;17.80;99.90
19878;DHT22;10101;52.204;9.910;2022-10-16T10:39:52;18.00;16.70
19878;DHT22;10101;52.204;9.910;2022-10-16T10:42:26;17.70;1.00
19878;DHT22;10101;52.204;9.910;2022-10-16T10:45:16;17.90;1.00
19878;DHT22;10101;52.204;9.910;2022-10-16T10:47:50;18.00;99.90
19878;DHT22;10101;52.204;9.910;2022-10-16T10:50:24;18.20;93.80
19878;DHT22;10101;52.204;9.910;2022-10-16T10:52:59;18.20;1.00
19878;DHT22;10101;52.204;9.910;2022-10-16T10:55:38;18.30;1.00
19878;DHT22;10101;52.204;9.910;2022-10-16T10:58:38;18.30;99.90
19878;DHT22;10101;52.204;9.910;2022-10-16T11:01:10;18.20;99.90
19878;DHT22;10101;52.204;9.910;2022-10-16T11:03:53;18.40;1.00
19878;DHT22;10101;52.204;9.910;2022-10-16T11:06:26;18.20;1.00
19878;DHT22;10101;52.204;9.910;2022-10-16T11:09:00;17.80;1.00
19878;DHT22;10101;52.204;9.910;2022-10-16T11:11:34;17.90;99.90
19878;DHT22;10101;52.204;9.910;2022-10-16T11:14:05;18.00;99.90
19878;DHT22;10101;52.204;9.910;2022-10-16T11:16:35;18.00;99.90
19878;DHT22;10101;52.204;9.910;2022-10-16T11:19:11;18.10;99.90
19878;DHT22;10101;52.204;9.910;2022-10-16T11:21:44;18.20;99.90
19878;DHT22;10101;52.204;9.910;2022-10-16T11:24:19;18.10;52.20
19878;DHT22;10101;52.204;9.910;2022-10-16T11:26:49;18.30;1.00
19878;DHT22;10101;52.204;9.910;2022-10-16T11:29:22;18.40;1.00
19878;DHT22;10101;52.204;9.910;2022-10-16T11:31:53;18.50;1.00
19878;DHT22;10101;52.204;9.910;2022-10-16T11:34:24;18.80;1.00
19878;DHT22;10101;52.204;9.910;2022-10-16T11:36:56;18.90;1.00
19878;DHT22;10101;52.204;9.910;2022-10-16T11:39:25;19.00;1.00
19878;DHT22;10101;52.204;9.910;2022-10-16T11:41:56;19.00;1.00
19878;DHT22;10101;52.204;9.910;2022-10-16T11:44:42;18.80;99.90
19878;DHT22;10101;52.204;9.910;2022-10-16T11:47:20;18.70;99.90
19878;DHT22;10101;52.204;9.910;2022-10-16T11:49:51;19.00;99.90
19878;DHT22;10101;52.204;9.910;2022-10-16T11:52:23;19.10;99.90
19878;DHT22;10101;52.204;9.910;2022-10-16T11:54:54;19.10;99.90
19878;DHT22;10101;52.204;9.910;2022-10-16T11:57:26;19.10;99.90
19878;DHT22;10101;52.204;9.910;2022-10-16T11:59:57;19.30;87.70
19878;DHT22;10101;52.204;9.910;2022-10-16T12:02:37;19.30;1.00
19878;DHT22;10101;52.204;9.910;2022-10-16T12:05:18;19.40;1.00
19878;DHT22;10101;52.204;9.910;2022-10-16T12:07:52;19.40;1.00
19878;DHT22;10101;52.204;9.910;2022-10-16T12:10:23;19.40;1.00
19878;DHT22;10101;52.204;9.910;2022-10-16T12:12:51;19.40;1.00
19878;DHT22;10101;52.204;9.910;2022-10-16T12:15:21;19.60;1.00
19878;DHT22;10101;52.204;9.910;2022-10-16T12:17:49;19.50;1.00
19878;DHT22;10101;52.204;9.910;2022-10-16T12:20:22;19.50;1.00
19878;DHT22;10101;52.204;9.910;2022-10-16T12:22:54;19.40;1.00
19878;DHT22;10101;52.204;9.910;2022-10-16T12:25:23;19.30;99.90
19878;DHT22;10101;52.204;9.910;2022-10-16T12:27:56;19.50;99.90
19878;DHT22;10101;52.204;9.910;2022-10-16T12:30:25;19.40;1.00
19878;DHT22;10101;52.204;9.910;2022-10-16T12:32:56;19.50;99.90
19878;DHT22;10101;52.204;9.910;2022-10-16T12:35:26;19.60;99.90
19878;DHT22;10101;52.204;9.910;2022-10-16T12:37:54;19.30;99.90
19878;DHT22;10101;52.204;9.910;2022-10-16T12:40:32;19.20;99.90
19878;DHT22;10101;52.204;9.910;2022-10-16T12:43:11;19.30;1.00
19878;DHT22;10101;52.204;9.910;2022-10-16T12:45:38;19.30;94.50
19878;DHT22;10101;52.204;9.910;2022-10-16T12:48:20;19.30;27.40
19878;DHT22;10101;52.204;9.910;2022-10-16T12:50:47;19.50;99.90
19878;DHT22;10101;52.204;9.910;2022-10-16T12:53:22;19.60;23.90
19878;DHT22;10101;52.204;9.910;2022-10-16T12:56:00;19.20;99.90
19878;DHT22;10101;52.204;9.910;2022-10-16T12:58:54;19.30;49.70
19878;DHT22;10101;52.204;9.910;2022-10-16T13:01:36;19.10;1.00
19878;DHT22;10101;52.204;9.910;2022-10-16T13:04:34;18.90;1.00
19878;DHT22;10101;52.204;9.910;2022-10-16T13:07:18;18.70;1.00
19878;DHT22;10101;52.204;9.910;2022-10-16T13:09:57;18.70;1.00
19878;DHT22;10101;52.204;9.910;2022-10-16T13:12:40;19.00;1.00
19878;DHT22;10101;52.204;9.910;2022-10-16T13:15:27;18.90;1.00
19878;DHT22;10101;52.204;9.910;2022-10-16T13:18:03;18.70;1.00
19878;DHT22;10101;52.204;9.910;2022-10-16T13:20:36;19.00;1.00
19878;DHT22;10101;52.204;9.910;2022-10-16T13:23:13;19.00;1.00
19878;DHT22;10101;52.204;9.910;2022-10-16T13:25:57;18.80;1.00
19878;DHT22;10101;52.204;9.910;2022-10-16T13:28:29;18.70;1.00
19878;DHT22;10101;52.204;9.910;2022-10-16T13:31:00;18.70;1.00
19878;DHT22;10101;52.204;9.910;2022-10-16T13:33:32;18.60;1.00
19878;DHT22;10101;52.204;9.910;2022-10-16T13:36:00;18.50;99.90
19878;DHT22;10101;52.204;9.910;2022-10-16T13:38:28;18.50;1.00
19878;DHT22;10101;52.204;9.910;2022-10-16T13:40:57;18.50;1.00
19878;DHT22;10101;52.204;9.910;2022-10-16T13:43:28;18.40;1.00
19878;DHT22;10101;52.204;9.910;2022-10-16T13:45:59;18.70;1.00
19878;DHT22;10101;52.204;9.910;2022-10-16T13:48:27;18.70;1.00
19878;DHT22;10101;52.204;9.910;2022-10-16T13:51:02;18.80;1.00
19878;DHT22;10101;52.204;9.910;2022-10-16T13:53:31;19.00;1.00
19878;DHT22;10101;52.204;9.910;2022-10-16T13:55:59;19.20;1.00
19878;DHT22;10101;52.204;9.910;2022-10-16T13:58:27;19.30;1.00
19878;DHT22;10101;52.204;9.910;2022-10-16T14:00:56;19.40;1.00
19878;DHT22;10101;52.204;9.910;2022-10-16T14:03:25;19.40;1.00
19878;DHT22;10101;52.204;9.910;2022-10-16T14:05:54;19.40;1.00
19878;DHT22;10101;52.204;9.910;2022-10-16T14:08:22;19.40;1.00
19878;DHT22;10101;52.204;9.910;2022-10-16T14:10:52;19.40;1.00
19878;DHT22;10101;52.204;9.910;2022-10-16T14:13:29;19.40;1.00
19878;DHT22;10101;52.204;9.910;2022-10-16T14:16:05;19.10;1.00
19878;DHT22;10101;52.204;9.910;2022-10-16T14:18:34;18.90;1.00
19878;DHT22;10101;52.204;9.910;2022-10-16T14:21:04;18.70;1.00
19878;DHT22;10101;52.204;9.910;2022-10-16T14:23:34;18.80;1.00
19878;DHT22;10101;52.204;9.910;2022-10-16T14:26:11;19.10;1.00
19878;DHT22;10101;52.204;9.910;2022-10-16T14:28:40;19.20;1.00
19878;DHT22;10101;52.204;9.910;2022-10-16T14:31:26;19.30;1.00
19878;DHT22;10101;52.204;9.910;2022-10-16T14:33:55;19.30;1.00
19878;DHT22;10101;52.204;9.910;2022-10-16T14:36:23;19.30;1.00
19878;DHT22;10101;52.204;9.910;2022-10-16T14:39:00;19.40;1.00
19878;DHT22;10101;52.204;9.910;2022-10-16T14:41:29;20.20;1.00
19878;DHT22;10101;52.204;9.910;2022-10-16T14:43:57;23.20;1.00
19878;DHT22;10101;52.204;9.910;2022-10-16T14:46:31;23.70;1.00
19878;DHT22;10101;52.204;9.910;2022-10-16T14:49:04;24.50;99.90
19878;DHT22;10101;52.204;9.910;2022-10-16T14:51:40;24.10;31.00
19878;DHT22;10101;52.204;9.910;2022-10-16T14:54:08;23.90;1.00
19878;DHT22;10101;52.204;9.910;2022-10-16T14:56:43;24.40;1.00
19878;DHT22;10101;52.204;9.910;2022-10-16T14:59:16;25.00;1.00
19878;DHT22;10101;52.204;9.910;2022-10-16T15:01:44;24.30;99.90
19878;DHT22;10101;52.204;9.910;2022-10-16T15:04:13;25.10;99.90
19878;DHT22;10101;52.204;9.910;2022-10-16T15:06:40;25.00;99.90
19878;DHT22;10101;52.204;9.910;2022-10-16T15:09:07;25.00;67.60
19878;DHT22;10101;52.204;9.910;2022-10-16T15:11:34;25.00;1.00
19878;DHT22;10101;52.204;9.910;2022-10-16T15:14:01;25.00;1.00
19878;DHT22;10101;52.204;9.910;2022-10-16T15:16:29;24.10;1.00
19878;DHT22;10101;52.204;9.910;2022-10-16T15:18:56;22.80;99.90
19878;DHT22;10101;52.204;9.910;2022-10-16T15:21:26;23.10;1.00
19878;DHT22;10101;52.204;9.910;2022-10-16T15:23:53;22.60;99.90
19878;DHT22;10101;52.204;9.910;2022-10-16T15:26:22;22.20;99.90
19878;DHT22;10101;52.204;9.910;2022-10-16T15:28:49;21.00;99.90
19878;DHT22;10101;52.204;9.910;2022-10-16T15:31:15;20.20;1.00
19878;DHT22;10101;52.204;9.910;2022-10-16T15:33:42;19.70;1.00
19878;DHT22;10101;52.204;9.910;2022-10-16T15:36:09;19.30;1.00
19878;DHT22;10101;52.204;9.910;2022-10-16T15:38:37;18.90;1.00
19878;DHT22;10101;52.204;9.910;2022-10-16T15:41:04;18.60;1.00
19878;DHT22;10101;52.204;9.910;2022-10-16T15:43:31;18.40;1.00
19878;DHT22;10101;52.204;9.910;2022-10-16T15:46:02;18.10;1.00
19878;DHT22;10101;52.204;9.910;2022-10-16T15:48:31;17.90;1.00
19878;DHT22;10101;52.204;9.910;2022-10-16T15:50:58;17.70;99.90
19878;DHT22;10101;52.204;9.910;2022-10-16T15:53:25;17.50;99.90